Saint Petersburg, Florida
Current Conditions -  °F | °C
As of 7:53 PM on Friday 24 Oct 2014 (Local Time) from KSPG Reporting Station
Clear Clear  
Wind Chill: 73°   Ceiling: Unl
Heat Index: 73°   Visibility: 10mi
Dew Point: 60°   Wind: 10mph
Humidity: 64%   Direction: 350°N
Pressure: 29.9"   Gusts: NA
Location:  27.77°N, 82.63°W
Report Text: KSPG 242353Z 35009KT 10SM CLR 23/16 A2990 RMK AO2 SLP124 T02280156 10267 20228 53006
Loading
Personal Weather Stations






























Interactive Weather Map New forecast layout! Learn more

10-Day Weather Forecast

Advertisements
Track Severe Weather on mobile